Thaani — HBY4477 — position and weather

sailwx.info

Track history (hours):
 
Tides and Currents Weather Stations Pressure Air Temp Water Temp Dewpoint Dewpoint Depression Visibility Wind Speed Wind Dir Waves Ship Positions

Thaani

Last reported at 2017-Sep-05 16:54 UTC. Time now 2017-Sep-26 11:23 UTC.
Position N 54°43' W 005°48'.
Warning: this ship's position is 20 days out of date.

Length 14 m.

Type: Pleasure craft. MMSI: 269102970.

Date/timePositionNaut miles runAvg speedWind from/ knotsBaromVisibWave heightAir tempDewpointWater temp
2017-Sep-05 16:54N 54°43' W 005°48'0 0.0
2017-Sep-05 16:30N 54°43' W 005°48'0 0.0
2017-Sep-05 16:00N 54°43' W 005°48'0 0.0
2017-Sep-05 15:30N 54°43' W 005°48'0 0.0
2017-Sep-05 15:00N 54°43' W 005°48'0 0.0
2017-Sep-05 14:30N 54°43' W 005°48'0 0.0
2017-Sep-05 14:00N 54°43' W 005°48'0 0.0
2017-Sep-05 13:30N 54°43' W 005°48'0 0.0
2017-Sep-05 12:57N 54°43' W 005°48'0 0.0
2017-Sep-05 12:30N 54°43' W 005°48'0 0.0
2017-Sep-05 12:00N 54°43' W 005°48'0 0.0
2017-Sep-05 11:30N 54°43' W 005°48'0 0.0
2017-Sep-05 11:00N 54°43' W 005°48'1 2.8
2017-Sep-05 10:30N 54°43' W 005°46'3 6.2
2017-Sep-05 10:00N 54°44' W 005°42'3 6.1
2017-Sep-05 09:30N 54°47' W 005°41'28 8.6
2017-Sep-05 06:14N 55°13' W 005°60'2 9.2
2017-Sep-05 06:00N 55°15' W 006°01'4 8.7
2017-Sep-05 05:30N 55°19' W 006°04'4 7.1
2017-Sep-05 05:00N 55°23' W 006°06'3 7.0
2017-Sep-05 04:30N 55°26' W 006°07'3 6.5
2017-Sep-05 04:00N 55°29' W 006°09'3 6.1
2017-Sep-05 03:30N 55°32' W 006°10'3 6.2
2017-Sep-05 03:00N 55°35' W 006°12'2 4.8
2017-Sep-05 02:30N 55°38' W 006°11'0 0.0
2017-Sep-04 18:14N 55°38' W 006°11'0 0.0
2017-Sep-04 17:59N 55°38' W 006°11'0 0.0
2017-Sep-04 17:17N 55°38' W 006°11'0 0.0
2017-Sep-04 16:47N 55°38' W 006°11'0 0.0
2017-Sep-02 15:44N 55°38' W 006°11'0 0.0
2017-Sep-02 15:20N 55°38' W 006°11'0 0.0
2017-Sep-02 14:50N 55°38' W 006°11'0 0.0
2017-Sep-02 14:23N 55°38' W 006°11'1 2.0
2017-Sep-02 14:00N 55°37' W 006°12'3 6.4
2017-Sep-02 13:30N 55°36' W 006°07'4 7.7
2017-Sep-02 13:00N 55°39' W 006°02'4 6.9
2017-Sep-02 12:28N 55°42' W 005°58'4 7.0
2017-Sep-02 11:50N 55°46' W 005°54'37 1.8
2017-Sep-01 15:20N 56°21' W 005°39'2 7.0
2017-Sep-01 14:59N 56°24' W 005°38'3 6.8
2017-Sep-01 14:30N 56°27' W 005°39'39 1.7
2017-Aug-31 15:16N 57°06' W 005°46'8 6.9
2017-Aug-31 14:08N 57°13' W 005°39'1 6.0
2017-Aug-31 13:54N 57°15' W 005°39'2 5.5
2017-Aug-31 13:30N 57°16' W 005°41'3 6.0
2017-Aug-31 13:01N 57°18' W 005°46'4 7.1
2017-Aug-31 12:30N 57°21' W 005°49'3 6.8
2017-Aug-31 12:00N 57°24' W 005°52'  
Track history (hours):
 
Tides and Currents Weather Stations Pressure Air Temp Water Temp Dewpoint Dewpoint Depression Visibility Wind Speed Wind Dir Waves Ship Positions

Thaani

Last reported at 2017-Sep-05 16:54 UTC. Time now 2017-Sep-26 11:23 UTC.
Position N 54°43' W 005°48'.
Warning: this ship's position is 20 days out of date.

Length 14 m.

Type: Pleasure craft. MMSI: 269102970.

Date/timePositionNaut miles runAvg speedWind from/ knotsBaromVisibWave heightAir tempDewpointWater temp
2017-Sep-05 16:54N 54°43' W 005°48'0 0.0
2017-Sep-05 16:30N 54°43' W 005°48'0 0.0
2017-Sep-05 16:00N 54°43' W 005°48'0 0.0
2017-Sep-05 15:30N 54°43' W 005°48'0 0.0
2017-Sep-05 15:00N 54°43' W 005°48'0 0.0
2017-Sep-05 14:30N 54°43' W 005°48'0 0.0
2017-Sep-05 14:00N 54°43' W 005°48'0 0.0
2017-Sep-05 13:30N 54°43' W 005°48'0 0.0
2017-Sep-05 12:57N 54°43' W 005°48'0 0.0
2017-Sep-05 12:30N 54°43' W 005°48'0 0.0
2017-Sep-05 12:00N 54°43' W 005°48'0 0.0
2017-Sep-05 11:30N 54°43' W 005°48'0 0.0
2017-Sep-05 11:00N 54°43' W 005°48'1 2.8
2017-Sep-05 10:30N 54°43' W 005°46'3 6.2
2017-Sep-05 10:00N 54°44' W 005°42'3 6.1
2017-Sep-05 09:30N 54°47' W 005°41'28 8.6
2017-Sep-05 06:14N 55°13' W 005°60'2 9.2
2017-Sep-05 06:00N 55°15' W 006°01'4 8.7
2017-Sep-05 05:30N 55°19' W 006°04'4 7.1
2017-Sep-05 05:00N 55°23' W 006°06'3 7.0
2017-Sep-05 04:30N 55°26' W 006°07'3 6.5
2017-Sep-05 04:00N 55°29' W 006°09'3 6.1
2017-Sep-05 03:30N 55°32' W 006°10'3 6.2
2017-Sep-05 03:00N 55°35' W 006°12'2 4.8
2017-Sep-05 02:30N 55°38' W 006°11'0 0.0
2017-Sep-04 18:14N 55°38' W 006°11'0 0.0
2017-Sep-04 17:59N 55°38' W 006°11'0 0.0
2017-Sep-04 17:17N 55°38' W 006°11'0 0.0
2017-Sep-04 16:47N 55°38' W 006°11'0 0.0
2017-Sep-02 15:44N 55°38' W 006°11'0 0.0
2017-Sep-02 15:20N 55°38' W 006°11'0 0.0
2017-Sep-02 14:50N 55°38' W 006°11'0 0.0
2017-Sep-02 14:23N 55°38' W 006°11'1 2.0
2017-Sep-02 14:00N 55°37' W 006°12'3 6.4
2017-Sep-02 13:30N 55°36' W 006°07'4 7.7
2017-Sep-02 13:00N 55°39' W 006°02'4 6.9
2017-Sep-02 12:28N 55°42' W 005°58'4 7.0
2017-Sep-02 11:50N 55°46' W 005°54'37 1.8
2017-Sep-01 15:20N 56°21' W 005°39'2 7.0
2017-Sep-01 14:59N 56°24' W 005°38'3 6.8
2017-Sep-01 14:30N 56°27' W 005°39'39 1.7
2017-Aug-31 15:16N 57°06' W 005°46'8 6.9
2017-Aug-31 14:08N 57°13' W 005°39'1 6.0
2017-Aug-31 13:54N 57°15' W 005°39'2 5.5
2017-Aug-31 13:30N 57°16' W 005°41'3 6.0
2017-Aug-31 13:01N 57°18' W 005°46'4 7.1
2017-Aug-31 12:30N 57°21' W 005°49'3 6.8
2017-Aug-31 12:00N 57°24' W 005°52'  

Dump ship's entire track history